createdAt,value
2018-10-06T00:01:11.221Z,7.83
2018-10-06T00:03:41.693Z,7.85
2018-10-06T00:06:12.240Z,7.90
2018-10-06T00:08:46.471Z,7.86
2018-10-06T00:11:17.577Z,7.79
2018-10-06T00:13:48.132Z,7.80
2018-10-06T00:16:18.645Z,7.76
2018-10-06T00:18:49.306Z,7.74
2018-10-06T00:21:19.985Z,7.73
2018-10-06T00:23:50.700Z,7.69
2018-10-06T00:26:21.388Z,7.66
2018-10-06T00:28:51.900Z,7.66
2018-10-06T00:31:22.476Z,7.65
2018-10-06T00:33:53.202Z,7.60
2018-10-06T00:36:23.704Z,7.54
2018-10-06T00:38:54.162Z,7.49
2018-10-06T00:41:31.100Z,7.49
2018-10-06T00:44:01.748Z,7.48
2018-10-06T00:46:32.263Z,7.43
2018-10-06T00:49:03.075Z,7.44
2018-10-06T00:51:33.640Z,7.43
2018-10-06T00:54:04.480Z,7.41
2018-10-06T00:56:35.196Z,7.45
2018-10-06T00:59:06.197Z,7.43
2018-10-06T01:01:36.878Z,7.40
2018-10-06T01:04:07.453Z,7.40
2018-10-06T01:06:38.131Z,7.42
2018-10-06T01:09:10.041Z,7.47
2018-10-06T01:11:40.941Z,7.43
2018-10-06T01:14:11.562Z,7.37
2018-10-06T01:16:42.287Z,7.34
2018-10-06T01:19:13.053Z,7.42
2018-10-06T01:21:43.747Z,7.45
2018-10-06T01:24:14.381Z,7.48
2018-10-06T01:26:45.250Z,7.47
2018-10-06T01:29:15.761Z,7.41
2018-10-06T01:31:46.549Z,7.47
2018-10-06T01:34:17.413Z,7.49
2018-10-06T01:36:47.871Z,7.50
2018-10-06T01:39:18.524Z,7.48
2018-10-06T01:41:49.195Z,7.47
2018-10-06T01:44:19.911Z,7.48
2018-10-06T01:46:50.412Z,7.47
2018-10-06T01:49:21.149Z,7.44
2018-10-06T01:51:51.873Z,7.49
2018-10-06T01:54:22.465Z,7.52
2018-10-06T01:56:53.058Z,7.54
2018-10-06T01:59:23.504Z,7.57
2018-10-06T02:01:54.224Z,7.54
2018-10-06T02:04:26.056Z,7.55
2018-10-06T02:06:57.404Z,7.57
2018-10-06T02:09:28.052Z,7.56
2018-10-06T02:11:58.424Z,7.54
2018-10-06T02:14:29.018Z,7.52
2018-10-06T02:16:59.879Z,7.58
2018-10-06T02:19:30.694Z,7.55
2018-10-06T02:22:01.090Z,7.50
2018-10-06T02:24:31.676Z,7.47
2018-10-06T02:27:02.448Z,7.47
2018-10-06T02:29:33.098Z,7.48
2018-10-06T02:32:03.430Z,7.47
2018-10-06T02:34:33.790Z,7.47
2018-10-06T02:37:04.099Z,7.48
2018-10-06T02:39:34.461Z,7.46
2018-10-06T02:42:04.791Z,7.44
2018-10-06T02:44:35.113Z,7.41
2018-10-06T02:47:05.516Z,7.41
2018-10-06T02:49:35.958Z,7.43
2018-10-06T02:52:06.292Z,7.43
2018-10-06T02:54:36.705Z,7.40
2018-10-06T02:57:07.372Z,7.39
2018-10-06T02:59:38.076Z,7.44
2018-10-06T03:02:08.706Z,7.51
2018-10-06T03:04:39.030Z,7.56
2018-10-06T03:07:09.420Z,7.62
2018-10-06T03:09:39.758Z,7.66
2018-10-06T03:12:10.184Z,7.69
2018-10-06T03:14:41.154Z,7.71
2018-10-06T03:17:11.484Z,7.70
2018-10-06T03:19:41.932Z,7.70
2018-10-06T03:22:12.328Z,7.71
2018-10-06T03:24:43.043Z,7.73
2018-10-06T03:27:14.788Z,7.74
2018-10-06T03:29:45.662Z,7.82
2018-10-06T03:32:16.009Z,7.85
2018-10-06T03:34:46.489Z,7.87
2018-10-06T03:37:16.709Z,7.86
2018-10-06T03:39:47.092Z,7.85
2018-10-06T03:42:17.416Z,7.87
2018-10-06T03:44:47.976Z,7.87
2018-10-06T03:47:18.318Z,7.88
2018-10-06T03:49:49.282Z,7.81
2018-10-06T03:52:19.645Z,7.78
2018-10-06T03:54:50.120Z,7.73
2018-10-06T03:57:20.501Z,7.72
2018-10-06T03:59:50.943Z,7.67
2018-10-06T04:02:21.343Z,7.63
2018-10-06T04:04:51.657Z,7.61
2018-10-06T04:07:22.041Z,7.60
2018-10-06T04:09:52.445Z,7.56
2018-10-06T04:12:22.671Z,7.54
2018-10-06T04:14:53.260Z,7.55
2018-10-06T04:17:23.517Z,7.57
2018-10-06T04:19:54.128Z,7.61
2018-10-06T04:22:24.344Z,7.56
2018-10-06T04:24:54.975Z,7.53
2018-10-06T04:27:25.337Z,7.51
2018-10-06T04:29:56.391Z,7.45
2018-10-06T04:32:26.729Z,7.43
2018-10-06T04:34:57.336Z,7.42
2018-10-06T04:37:28.154Z,7.39
2018-10-06T04:39:58.517Z,7.37
2018-10-06T04:42:29.265Z,7.35
2018-10-06T04:44:59.997Z,7.37
2018-10-06T04:47:30.451Z,7.38
2018-10-06T04:50:00.989Z,7.38
2018-10-06T04:52:31.285Z,7.38
2018-10-06T04:55:02.231Z,7.39
2018-10-06T04:57:33.145Z,7.45
2018-10-06T05:00:03.513Z,7.52
2018-10-06T05:02:34.069Z,7.51
2018-10-06T05:05:04.832Z,7.47
2018-10-06T05:07:35.309Z,7.42
2018-10-06T05:10:06.551Z,7.40
2018-10-06T05:12:36.949Z,7.39
2018-10-06T05:15:07.714Z,7.38
2018-10-06T05:17:38.737Z,7.40
2018-10-06T05:20:09.173Z,7.40
2018-10-06T05:22:39.871Z,7.41
2018-10-06T05:25:10.529Z,7.44
2018-10-06T05:27:41.510Z,7.52
2018-10-06T05:30:11.919Z,7.56
2018-10-06T05:32:42.429Z,7.56
2018-10-06T05:35:12.823Z,7.60
2018-10-06T05:37:43.717Z,7.62
2018-10-06T05:40:14.044Z,7.64
2018-10-06T05:42:44.887Z,7.70
2018-10-06T05:45:16.065Z,7.74
2018-10-06T05:47:46.671Z,7.79
2018-10-06T05:50:17.712Z,7.81
2018-10-06T05:52:48.639Z,7.84
2018-10-06T05:55:19.557Z,7.86
2018-10-06T05:57:50.346Z,7.96
2018-10-06T06:00:20.951Z,8.05
2018-10-06T06:02:53.089Z,8.16
2018-10-06T06:05:24.193Z,8.25
2018-10-06T06:07:55.000Z,8.30
2018-10-06T06:10:28.502Z,8.31
2018-10-06T06:12:59.708Z,8.34
2018-10-06T06:15:30.961Z,8.41
2018-10-06T06:18:08.510Z,8.46
2018-10-06T06:20:39.119Z,8.50
2018-10-06T06:23:09.525Z,8.54
2018-10-06T06:25:39.845Z,8.62
2018-10-06T06:28:11.129Z,8.70
2018-10-06T06:30:41.570Z,8.78
2018-10-06T06:33:12.254Z,8.87
2018-10-06T06:35:43.083Z,8.97
2018-10-06T06:38:13.681Z,9.12
2018-10-06T06:40:44.120Z,9.28
2018-10-06T06:43:14.458Z,9.41
2018-10-06T06:45:45.082Z,9.62
2018-10-06T06:48:15.749Z,9.89
2018-10-06T06:50:46.908Z,10.22
2018-10-06T06:53:18.333Z,10.53
2018-10-06T06:55:49.336Z,10.76
2018-10-06T06:58:20.120Z,11.05
2018-10-06T07:00:50.779Z,11.37
2018-10-06T07:03:21.630Z,11.62
2018-10-06T07:05:52.163Z,12.05
2018-10-06T07:08:22.497Z,12.52
2018-10-06T07:10:52.930Z,12.81
2018-10-06T07:13:23.362Z,13.16
2018-10-06T07:15:53.844Z,13.48
2018-10-06T07:18:34.956Z,13.52
2018-10-06T07:21:05.356Z,13.35
2018-10-06T07:23:35.965Z,13.47
2018-10-06T07:26:06.360Z,13.61
2018-10-06T07:28:36.870Z,13.76
2018-10-06T07:31:07.057Z,14.09
2018-10-06T07:33:42.890Z,14.19
2018-10-06T07:36:14.686Z,14.49
2018-10-06T07:38:45.211Z,14.61
2018-10-06T07:41:15.618Z,14.83
2018-10-06T07:43:46.137Z,14.70
2018-10-06T07:46:16.696Z,14.85
2018-10-06T07:48:47.166Z,15.34
2018-10-06T07:51:18.050Z,15.94
2018-10-06T07:53:48.382Z,16.11
2018-10-06T07:56:18.788Z,16.25
2018-10-06T07:58:49.177Z,16.45
2018-10-06T08:01:20.739Z,17.01
2018-10-06T08:03:52.482Z,17.53
2018-10-06T08:06:23.380Z,17.64
2018-10-06T08:08:53.725Z,17.15
2018-10-06T08:11:24.080Z,16.76
2018-10-06T08:13:54.523Z,16.55
2018-10-06T08:16:24.832Z,16.78
2018-10-06T08:18:55.355Z,16.92
2018-10-06T08:21:25.652Z,17.06
2018-10-06T08:23:56.889Z,16.78
2018-10-06T08:26:27.195Z,16.43
2018-10-06T08:28:57.509Z,16.37
2018-10-06T08:31:27.903Z,16.22
2018-10-06T08:33:58.183Z,16.16
2018-10-06T08:36:28.503Z,16.03
2018-10-06T08:38:58.887Z,16.09
2018-10-06T08:41:29.289Z,16.17
2018-10-06T08:43:59.835Z,16.23
2018-10-06T08:46:30.207Z,16.25
2018-10-06T08:49:00.576Z,16.46
2018-10-06T08:51:30.874Z,16.53
2018-10-06T08:54:01.130Z,16.55
2018-10-06T08:56:31.500Z,16.40
2018-10-06T08:59:01.868Z,16.55
2018-10-06T09:01:32.246Z,16.71
2018-10-06T09:04:02.921Z,16.92
2018-10-06T09:06:33.208Z,16.97
2018-10-06T09:09:05.230Z,17.10
2018-10-06T09:11:35.725Z,17.53
2018-10-06T09:14:06.049Z,18.10
2018-10-06T09:16:36.405Z,18.97
2018-10-06T09:19:07.454Z,19.75
2018-10-06T09:21:37.837Z,20.23
2018-10-06T09:24:08.255Z,21.35
2018-10-06T09:26:39.233Z,22.50
2018-10-06T09:29:09.741Z,22.67
2018-10-06T09:31:40.141Z,22.05
2018-10-06T09:34:10.647Z,21.99
2018-10-06T09:36:40.932Z,21.65
2018-10-06T09:39:11.355Z,21.82
2018-10-06T09:41:41.691Z,21.86
2018-10-06T09:44:11.923Z,22.41
2018-10-06T09:46:42.236Z,22.43
2018-10-06T09:49:12.391Z,22.75
2018-10-06T09:51:42.810Z,22.59
2018-10-06T09:54:13.068Z,23.06
2018-10-06T09:56:43.555Z,23.43
2018-10-06T09:59:13.788Z,23.32
2018-10-06T10:01:49.479Z,23.37
2018-10-06T10:04:19.753Z,23.29
2018-10-06T10:06:50.009Z,24.34
2018-10-06T10:09:20.254Z,24.60
2018-10-06T10:11:50.553Z,24.59
2018-10-06T10:14:20.801Z,24.51
2018-10-06T10:16:51.092Z,24.72
2018-10-06T10:19:21.395Z,25.53
2018-10-06T10:21:51.745Z,25.77
2018-10-06T10:24:22.011Z,26.25
2018-10-06T10:26:52.481Z,25.54
2018-10-06T10:29:22.861Z,25.34
2018-10-06T10:31:53.302Z,26.18
2018-10-06T10:34:23.759Z,27.16
2018-10-06T10:36:54.477Z,27.28
2018-10-06T10:39:25.080Z,27.48
2018-10-06T10:41:55.421Z,27.00
2018-10-06T10:44:25.836Z,26.37
2018-10-06T10:46:56.399Z,26.12
2018-10-06T10:49:26.703Z,25.78
2018-10-06T10:51:57.009Z,25.70
2018-10-06T10:54:27.451Z,25.76
2018-10-06T10:56:57.716Z,25.45
2018-10-06T10:59:28.048Z,25.94
2018-10-06T11:01:59.028Z,26.23
2018-10-06T11:04:29.555Z,26.52
2018-10-06T11:07:00.174Z,27.34
2018-10-06T11:09:31.334Z,28.24
2018-10-06T11:12:01.670Z,28.91
2018-10-06T11:14:32.929Z,28.43
2018-10-06T11:17:03.444Z,28.83
2018-10-06T11:19:36.089Z,28.33
2018-10-06T11:22:06.527Z,27.50
2018-10-06T11:24:37.008Z,27.73
2018-10-06T11:27:07.521Z,28.13
2018-10-06T11:29:37.853Z,28.80
2018-10-06T11:32:08.186Z,29.46
2018-10-06T11:34:38.560Z,29.29
2018-10-06T11:37:09.007Z,28.33
2018-10-06T11:39:39.356Z,27.72
2018-10-06T11:42:09.900Z,28.23
2018-10-06T11:44:40.345Z,27.61
2018-10-06T11:47:10.746Z,27.57
2018-10-06T11:49:42.098Z,27.91
2018-10-06T11:52:12.482Z,29.09
2018-10-06T11:54:42.953Z,28.87
2018-10-06T11:57:13.400Z,28.87
2018-10-06T11:59:43.966Z,28.39
2018-10-06T12:02:14.782Z,28.47
2018-10-06T12:04:45.552Z,28.10
2018-10-06T12:07:15.941Z,28.53
2018-10-06T12:09:46.717Z,27.81
2018-10-06T12:12:17.190Z,28.52
2018-10-06T12:14:47.523Z,27.34
2018-10-06T12:17:18.024Z,27.39
2018-10-06T12:19:48.498Z,27.28
2018-10-06T12:22:18.929Z,27.55
2018-10-06T12:24:49.292Z,28.64
2018-10-06T12:27:19.718Z,28.71
2018-10-06T12:29:50.034Z,28.60
2018-10-06T12:32:20.339Z,28.23
2018-10-06T12:34:50.764Z,28.47
2018-10-06T12:37:21.180Z,28.08
2018-10-06T12:39:51.653Z,27.36
2018-10-06T12:42:22.332Z,27.58
2018-10-06T12:44:52.733Z,27.75
2018-10-06T12:47:23.467Z,27.93
2018-10-06T12:49:53.828Z,27.85
2018-10-06T12:52:24.164Z,28.39
2018-10-06T12:54:54.584Z,29.26
2018-10-06T12:57:24.913Z,29.02
2018-10-06T12:59:55.330Z,28.12
2018-10-06T13:02:25.678Z,27.99
2018-10-06T13:04:56.014Z,28.64
2018-10-06T13:07:26.430Z,28.96
2018-10-06T13:09:56.813Z,28.10
2018-10-06T13:12:27.147Z,26.99
2018-10-06T13:14:57.459Z,26.76
2018-10-06T13:17:27.790Z,27.31
2018-10-06T13:19:58.447Z,28.60
2018-10-06T13:22:28.804Z,29.02
2018-10-06T13:24:59.240Z,28.89
2018-10-06T13:27:29.587Z,29.48
2018-10-06T13:29:59.910Z,28.73
2018-10-06T13:32:30.364Z,28.17
2018-10-06T13:35:01.130Z,27.89
2018-10-06T13:37:31.519Z,28.03
2018-10-06T13:40:01.885Z,28.05
2018-10-06T13:42:32.237Z,27.79
2018-10-06T13:45:02.606Z,27.52
2018-10-06T13:47:33.033Z,28.29
2018-10-06T13:50:03.493Z,29.17
2018-10-06T13:52:33.847Z,27.90
2018-10-06T13:55:04.197Z,26.95
2018-10-06T13:57:34.510Z,27.10
2018-10-06T14:00:04.990Z,26.19
2018-10-06T14:02:35.358Z,25.80
2018-10-06T14:05:14.897Z,26.02
2018-10-06T14:07:45.428Z,26.62
2018-10-06T14:10:15.825Z,27.89
2018-10-06T14:12:46.148Z,28.42
2018-10-06T14:15:16.438Z,28.73
2018-10-06T14:17:47.162Z,27.98
2018-10-06T14:20:17.492Z,27.43
2018-10-06T14:22:47.844Z,27.63
2018-10-06T14:25:18.639Z,26.89
2018-10-06T14:27:49.252Z,26.21
2018-10-06T14:30:19.753Z,25.63
2018-10-06T14:32:50.147Z,25.53
2018-10-06T14:35:20.493Z,25.20
2018-10-06T14:37:50.985Z,24.84
2018-10-06T14:40:21.319Z,24.56
2018-10-06T14:42:51.803Z,24.67
2018-10-06T14:45:22.183Z,24.53
2018-10-06T14:47:52.589Z,24.41
2018-10-06T14:50:23.055Z,24.11
2018-10-06T14:52:53.510Z,24.00
2018-10-06T14:55:23.794Z,23.96
2018-10-06T14:57:54.226Z,23.95
2018-10-06T15:00:24.466Z,24.03
2018-10-06T15:02:54.845Z,24.05
2018-10-06T15:05:25.088Z,23.94
2018-10-06T15:07:55.332Z,23.73
2018-10-06T15:10:25.754Z,23.52
2018-10-06T15:12:56.017Z,23.47
2018-10-06T15:15:26.321Z,23.36
2018-10-06T15:17:56.589Z,23.23
2018-10-06T15:20:26.886Z,23.09
2018-10-06T15:23:20.920Z,23.04
2018-10-06T15:25:51.355Z,22.89
2018-10-06T15:28:21.634Z,22.75
2018-10-06T15:30:51.929Z,22.70
2018-10-06T15:33:22.201Z,22.62
2018-10-06T15:35:52.525Z,22.51
2018-10-06T15:38:22.831Z,22.41
2018-10-06T15:40:53.102Z,22.31
2018-10-06T15:43:23.417Z,22.10
2018-10-06T15:45:54.222Z,22.14
2018-10-06T15:48:24.476Z,22.03
2018-10-06T15:50:54.854Z,22.01
2018-10-06T15:53:25.165Z,21.93
2018-10-06T15:55:55.462Z,21.87
2018-10-06T15:58:25.858Z,21.78
2018-10-06T16:00:56.140Z,21.67
2018-10-06T16:03:26.418Z,21.58
2018-10-06T16:05:56.710Z,21.47
2018-10-06T16:08:27.100Z,21.51
2018-10-06T16:10:57.507Z,21.53
2018-10-06T16:13:28.841Z,21.54
2018-10-06T16:15:59.367Z,21.49
2018-10-06T16:18:29.675Z,21.45
2018-10-06T16:20:59.929Z,21.37
2018-10-06T16:23:30.357Z,21.26
2018-10-06T16:26:00.599Z,21.12
2018-10-06T16:28:30.961Z,20.96
2018-10-06T16:31:01.397Z,20.82
2018-10-06T16:33:31.719Z,20.70
2018-10-06T16:36:01.933Z,20.56
2018-10-06T16:38:32.529Z,20.42
2018-10-06T16:41:03.012Z,20.29
2018-10-06T16:43:33.551Z,20.16
2018-10-06T16:46:03.806Z,20.06
2018-10-06T16:48:34.118Z,19.97
2018-10-06T16:51:04.463Z,19.88
2018-10-06T16:53:34.858Z,19.76
2018-10-06T16:56:05.210Z,19.68
2018-10-06T16:58:35.597Z,19.61
2018-10-06T17:01:05.779Z,19.58
2018-10-06T17:03:36.170Z,19.54
2018-10-06T17:06:06.541Z,19.47
2018-10-06T17:08:36.809Z,19.36
2018-10-06T17:11:07.062Z,19.32
2018-10-06T17:13:37.396Z,19.25
2018-10-06T17:16:08.260Z,19.16
2018-10-06T17:18:38.564Z,19.12
2018-10-06T17:21:09.125Z,19.09
2018-10-06T17:23:39.665Z,19.05
2018-10-06T17:26:10.044Z,19.01
2018-10-06T17:28:40.522Z,18.96
2018-10-06T17:31:10.852Z,18.90
2018-10-06T17:33:41.029Z,18.82
2018-10-06T17:36:11.507Z,18.75
2018-10-06T17:38:41.854Z,18.65
2018-10-06T17:41:12.235Z,18.58
2018-10-06T17:43:42.719Z,18.46
2018-10-06T17:46:13.352Z,18.35
2018-10-06T17:48:43.812Z,18.26
2018-10-06T17:51:14.103Z,18.20
2018-10-06T17:53:44.517Z,18.11
2018-10-06T17:56:18.491Z,18.10
2018-10-06T17:58:49.485Z,18.11
2018-10-06T18:01:19.960Z,18.08
2018-10-06T18:03:50.321Z,18.00
2018-10-06T18:06:20.567Z,17.85
2018-10-06T18:08:50.861Z,17.74
2018-10-06T18:11:21.199Z,17.68
2018-10-06T18:13:51.597Z,17.79
2018-10-06T18:16:22.001Z,17.81
2018-10-06T18:18:52.272Z,17.78
2018-10-06T18:21:22.978Z,17.73
2018-10-06T18:23:53.308Z,17.69
2018-10-06T18:26:23.543Z,17.66
2018-10-06T18:28:53.841Z,17.63
2018-10-06T18:31:24.174Z,17.63
2018-10-06T18:33:54.533Z,17.60
2018-10-06T18:36:24.883Z,17.60
2018-10-06T18:38:55.776Z,17.60
2018-10-06T18:41:26.001Z,17.56
2018-10-06T18:43:56.396Z,17.53
2018-10-06T18:46:26.677Z,17.46
2018-10-06T18:48:57.037Z,17.42
2018-10-06T18:51:27.306Z,17.40
2018-10-06T18:53:57.715Z,17.38
2018-10-06T18:56:28.113Z,17.38
2018-10-06T18:58:58.743Z,17.34
2018-10-06T19:01:29.276Z,17.29
2018-10-06T19:04:00.067Z,17.24
2018-10-06T19:06:30.814Z,17.14
2018-10-06T19:09:01.534Z,17.04
2018-10-06T19:11:32.424Z,16.99
2018-10-06T19:14:03.174Z,16.95
2018-10-06T19:16:33.912Z,16.90
2018-10-06T19:19:04.653Z,16.87
2018-10-06T19:21:35.464Z,16.85
2018-10-06T19:24:06.296Z,16.79
2018-10-06T19:26:37.411Z,16.76
2018-10-06T19:29:08.316Z,16.73
2018-10-06T19:31:38.944Z,16.68
2018-10-06T19:34:09.658Z,16.66
2018-10-06T19:36:40.418Z,16.60
2018-10-06T19:39:11.149Z,16.57
2018-10-06T19:41:41.738Z,16.56
2018-10-06T19:44:12.946Z,16.55
2018-10-06T19:46:43.756Z,16.54
2018-10-06T19:49:14.431Z,16.52
2018-10-06T19:51:45.223Z,16.52
2018-10-06T19:54:16.040Z,16.51
2018-10-06T19:56:46.689Z,16.48
2018-10-06T19:59:17.343Z,16.43
2018-10-06T20:01:47.895Z,16.41
2018-10-06T20:04:18.607Z,16.36
2018-10-06T20:06:49.213Z,16.30
2018-10-06T20:09:20.213Z,16.23
2018-10-06T20:11:50.921Z,16.18
2018-10-06T20:14:21.580Z,16.17
2018-10-06T20:16:52.018Z,16.17
2018-10-06T20:19:22.565Z,16.16
2018-10-06T20:21:53.052Z,16.12
2018-10-06T20:24:23.595Z,16.10
2018-10-06T20:26:54.377Z,16.11
2018-10-06T20:29:24.686Z,16.10
2018-10-06T20:31:54.876Z,16.10
2018-10-06T20:34:25.114Z,16.12
2018-10-06T20:36:55.504Z,16.11
2018-10-06T20:39:25.726Z,16.10
2018-10-06T20:41:55.972Z,16.07
2018-10-06T20:44:26.681Z,15.99
2018-10-06T20:46:56.933Z,15.94
2018-10-06T20:49:27.286Z,15.92
2018-10-06T20:52:01.082Z,15.87
2018-10-06T20:54:31.349Z,15.81
2018-10-06T20:57:01.552Z,15.73
2018-10-06T20:59:31.913Z,15.67
2018-10-06T21:02:02.219Z,15.60
2018-10-06T21:04:32.490Z,15.54
2018-10-06T21:07:02.771Z,15.50
2018-10-06T21:09:33.159Z,15.44
2018-10-06T21:12:03.405Z,15.42
2018-10-06T21:14:33.805Z,15.38
2018-10-06T21:17:04.120Z,15.31
2018-10-06T21:19:34.553Z,15.18
2018-10-06T21:22:04.841Z,15.09
2018-10-06T21:24:35.183Z,15.05
2018-10-06T21:27:05.615Z,15.07
2018-10-06T21:29:36.086Z,14.97
2018-10-06T21:32:06.157Z,14.88
2018-10-06T21:34:36.777Z,14.83
2018-10-06T21:37:07.231Z,14.77
2018-10-06T21:39:37.552Z,14.76
2018-10-06T21:42:07.842Z,14.73
2018-10-06T21:44:40.104Z,14.67
2018-10-06T21:47:10.482Z,14.58
2018-10-06T21:49:40.844Z,14.56
2018-10-06T21:52:11.217Z,14.49
2018-10-06T21:54:41.629Z,14.46
2018-10-06T21:57:26.699Z,14.42
2018-10-06T21:59:57.138Z,14.39
2018-10-06T22:02:27.369Z,14.34
2018-10-06T22:04:57.685Z,14.29
2018-10-06T22:07:27.929Z,14.19
2018-10-06T22:09:58.265Z,14.08
2018-10-06T22:12:28.531Z,14.00
2018-10-06T22:14:58.958Z,13.91
2018-10-06T22:17:29.281Z,13.87
2018-10-06T22:19:59.625Z,13.87
2018-10-06T22:22:30.023Z,13.82
2018-10-06T22:25:00.575Z,13.83
2018-10-06T22:27:30.916Z,13.78
2018-10-06T22:30:01.179Z,13.71
2018-10-06T22:32:31.464Z,13.65
2018-10-06T22:35:01.717Z,13.59
2018-10-06T22:37:32.417Z,13.52
2018-10-06T22:40:02.691Z,13.46
2018-10-06T22:42:32.920Z,13.41
2018-10-06T22:45:03.260Z,13.38
2018-10-06T22:47:33.522Z,13.33
2018-10-06T22:50:03.864Z,13.30
2018-10-06T22:52:34.149Z,13.26
2018-10-06T22:55:04.515Z,13.28
2018-10-06T22:57:34.825Z,13.27
2018-10-06T23:00:05.240Z,13.26
2018-10-06T23:02:35.734Z,13.23
2018-10-06T23:05:06.103Z,13.16
2018-10-06T23:07:36.513Z,13.15
2018-10-06T23:10:06.831Z,13.10
2018-10-06T23:12:37.121Z,13.01
2018-10-06T23:15:07.553Z,13.04
2018-10-06T23:17:37.797Z,13.05
2018-10-06T23:20:08.109Z,13.10
2018-10-06T23:22:38.380Z,13.12
2018-10-06T23:25:08.663Z,13.08
2018-10-06T23:27:39.149Z,13.11
2018-10-06T23:30:10.219Z,13.13
2018-10-06T23:32:40.481Z,13.15
2018-10-06T23:35:10.810Z,13.17
2018-10-06T23:37:41.093Z,13.21
2018-10-06T23:40:11.393Z,13.22
2018-10-06T23:42:41.662Z,13.22
2018-10-06T23:45:11.944Z,13.26
2018-10-06T23:47:42.295Z,13.31
2018-10-06T23:50:12.610Z,13.30
2018-10-06T23:52:43.018Z,13.29
2018-10-06T23:55:13.351Z,13.32
2018-10-06T23:57:43.670Z,13.29
